sensor_id;sensor_type;location;lat;lon;timestamp;pressure;altitude;pressure_sealevel;temperature;humidity
54994;BME280;40891;47.242;8.648;2023-05-23T00:00:33;96162.13;;;19.85;81.14
54994;BME280;40891;47.242;8.648;2023-05-23T00:03:01;96149.06;;;19.82;79.16
54994;BME280;40891;47.242;8.648;2023-05-23T00:05:27;96149.56;;;19.81;80.30
54994;BME280;40891;47.242;8.648;2023-05-23T00:07:53;96143.69;;;19.79;80.60
54994;BME280;40891;47.242;8.648;2023-05-23T00:10:18;96144.47;;;19.74;81.18
54994;BME280;40891;47.242;8.648;2023-05-23T00:12:44;96145.28;;;19.68;82.72
54994;BME280;40891;47.242;8.648;2023-05-23T00:15:12;96153.47;;;19.72;82.57
54994;BME280;40891;47.242;8.648;2023-05-23T00:17:37;96147.56;;;19.76;81.52
54994;BME280;40891;47.242;8.648;2023-05-23T00:20:04;96142.19;;;19.72;82.31
54994;BME280;40891;47.242;8.648;2023-05-23T00:22:30;96139.16;;;19.59;83.34
54994;BME280;40891;47.242;8.648;2023-05-23T00:24:55;96136.59;;;19.55;84.10
54994;BME280;40891;47.242;8.648;2023-05-23T00:27:22;96138.44;;;19.42;84.52
54994;BME280;40891;47.242;8.648;2023-05-23T00:29:47;96133.31;;;19.46;84.63
54994;BME280;40891;47.242;8.648;2023-05-23T00:32:12;96135.38;;;19.29;85.33
54994;BME280;40891;47.242;8.648;2023-05-23T00:34:38;96132.59;;;19.18;86.21
54994;BME280;40891;47.242;8.648;2023-05-23T00:37:04;96135.94;;;19.11;86.50
54994;BME280;40891;47.242;8.648;2023-05-23T00:39:29;96137.19;;;19.10;86.37
54994;BME280;40891;47.242;8.648;2023-05-23T00:41:54;96136.94;;;19.08;87.46
54994;BME280;40891;47.242;8.648;2023-05-23T00:44:20;96147.69;;;19.20;85.89
54994;BME280;40891;47.242;8.648;2023-05-23T00:46:49;96137.69;;;19.30;84.47
54994;BME280;40891;47.242;8.648;2023-05-23T00:49:16;96134.31;;;19.43;84.14
54994;BME280;40891;47.242;8.648;2023-05-23T00:51:44;96135.63;;;19.36;83.96
54994;BME280;40891;47.242;8.648;2023-05-23T00:54:10;96143.56;;;19.32;84.13
54994;BME280;40891;47.242;8.648;2023-05-23T00:56:37;96142.31;;;19.28;86.03
54994;BME280;40891;47.242;8.648;2023-05-23T00:59:04;96148.19;;;19.30;89.28
54994;BME280;40891;47.242;8.648;2023-05-23T01:01:30;96141.25;;;19.31;93.58
54994;BME280;40891;47.242;8.648;2023-05-23T01:03:56;96147.41;;;19.24;94.49
54994;BME280;40891;47.242;8.648;2023-05-23T01:06:22;96141.03;;;19.18;94.56
54994;BME280;40891;47.242;8.648;2023-05-23T01:08:47;96140.25;;;19.17;93.24
54994;BME280;40891;47.242;8.648;2023-05-23T01:11:24;96154.91;;;19.05;93.73
54994;BME280;40891;47.242;8.648;2023-05-23T01:14:00;96149.00;;;19.08;94.28
54994;BME280;40891;47.242;8.648;2023-05-23T01:21:44;96150.56;;;18.92;96.71
54994;BME280;40891;47.242;8.648;2023-05-23T01:26:56;96159.78;;;18.76;97.31
54994;BME280;40891;47.242;8.648;2023-05-23T01:29:31;96153.13;;;18.79;97.04
54994;BME280;40891;47.242;8.648;2023-05-23T01:31:59;96161.84;;;18.76;98.33
54994;BME280;40891;47.242;8.648;2023-05-23T01:34:25;96161.31;;;18.72;96.64
54994;BME280;40891;47.242;8.648;2023-05-23T01:36:54;96159.28;;;18.78;93.96
54994;BME280;40891;47.242;8.648;2023-05-23T01:39:20;96164.41;;;18.63;94.91
54994;BME280;40891;47.242;8.648;2023-05-23T01:41:46;96166.44;;;18.51;95.17
54994;BME280;40891;47.242;8.648;2023-05-23T01:44:12;96161.53;;;18.41;94.86
54994;BME280;40891;47.242;8.648;2023-05-23T01:46:38;96168.97;;;18.38;95.29
54994;BME280;40891;47.242;8.648;2023-05-23T01:49:07;96173.56;;;18.41;94.71
54994;BME280;40891;47.242;8.648;2023-05-23T01:51:34;96166.41;;;18.40;94.98
54994;BME280;40891;47.242;8.648;2023-05-23T01:54:00;96174.84;;;18.40;93.72
54994;BME280;40891;47.242;8.648;2023-05-23T01:56:26;96177.13;;;18.25;95.35
54994;BME280;40891;47.242;8.648;2023-05-23T01:58:53;96171.72;;;18.16;95.53
54994;BME280;40891;47.242;8.648;2023-05-23T02:01:18;96176.31;;;18.08;96.86
54994;BME280;40891;47.242;8.648;2023-05-23T02:03:44;96173.22;;;17.95;97.10
54994;BME280;40891;47.242;8.648;2023-05-23T02:06:10;96168.59;;;17.92;96.80
54994;BME280;40891;47.242;8.648;2023-05-23T02:08:36;96170.63;;;17.86;97.27
54994;BME280;40891;47.242;8.648;2023-05-23T02:11:01;96173.44;;;17.86;96.75
54994;BME280;40891;47.242;8.648;2023-05-23T02:13:26;96171.66;;;17.88;97.04
54994;BME280;40891;47.242;8.648;2023-05-23T02:15:52;96175.50;;;17.96;96.29
54994;BME280;40891;47.242;8.648;2023-05-23T02:18:17;96162.72;;;18.01;95.74
54994;BME280;40891;47.242;8.648;2023-05-23T02:20:42;96166.84;;;18.11;94.95
54994;BME280;40891;47.242;8.648;2023-05-23T02:23:08;96169.16;;;18.07;94.83
54994;BME280;40891;47.242;8.648;2023-05-23T02:25:33;96166.06;;;17.99;95.07
54994;BME280;40891;47.242;8.648;2023-05-23T02:27:59;96169.66;;;18.00;94.92
54994;BME280;40891;47.242;8.648;2023-05-23T02:30:24;96170.16;;;18.04;95.27
54994;BME280;40891;47.242;8.648;2023-05-23T02:32:49;96166.56;;;18.03;94.88
54994;BME280;40891;47.242;8.648;2023-05-23T02:35:15;96169.88;;;17.96;94.53
54994;BME280;40891;47.242;8.648;2023-05-23T02:37:41;96175.50;;;17.91;94.52
54994;BME280;40891;47.242;8.648;2023-05-23T02:40:06;96173.44;;;17.86;93.86
54994;BME280;40891;47.242;8.648;2023-05-23T02:42:32;96176.53;;;17.93;93.04
54994;BME280;40891;47.242;8.648;2023-05-23T02:44:58;96175.75;;;17.93;93.03
54994;BME280;40891;47.242;8.648;2023-05-23T02:47:23;96167.56;;;17.95;92.81
54994;BME280;40891;47.242;8.648;2023-05-23T02:49:49;96172.19;;;17.98;93.52
54994;BME280;40891;47.242;8.648;2023-05-23T02:52:14;96176.53;;;17.93;94.62
54994;BME280;40891;47.242;8.648;2023-05-23T02:54:39;96176.75;;;17.90;94.92
54994;BME280;40891;47.242;8.648;2023-05-23T02:57:05;96183.41;;;17.87;95.37
54994;BME280;40891;47.242;8.648;2023-05-23T02:59:30;96189.78;;;17.82;95.92
54994;BME280;40891;47.242;8.648;2023-05-23T03:01:56;96189.47;;;17.68;95.80
54994;BME280;40891;47.242;8.648;2023-05-23T03:04:21;96189.94;;;17.61;96.58
54994;BME280;40891;47.242;8.648;2023-05-23T03:06:46;96194.78;;;17.55;97.65
54994;BME280;40891;47.242;8.648;2023-05-23T03:09:14;96184.72;;;17.49;97.31
54994;BME280;40891;47.242;8.648;2023-05-23T03:11:41;96181.66;;;17.47;97.01
54994;BME280;40891;47.242;8.648;2023-05-23T03:14:06;96184.72;;;17.43;97.55
54994;BME280;40891;47.242;8.648;2023-05-23T03:16:32;96186.25;;;17.39;97.84
54994;BME280;40891;47.242;8.648;2023-05-23T03:18:57;96192.59;;;17.39;98.33
54994;BME280;40891;47.242;8.648;2023-05-23T03:21:23;96185.41;;;17.33;98.26
54994;BME280;40891;47.242;8.648;2023-05-23T03:23:48;96192.91;;;17.41;99.15
54994;BME280;40891;47.242;8.648;2023-05-23T03:26:14;96187.28;;;17.41;98.77
54994;BME280;40891;47.242;8.648;2023-05-23T03:28:40;96193.63;;;17.36;99.07
54994;BME280;40891;47.242;8.648;2023-05-23T03:31:05;96193.16;;;17.43;99.86
54994;BME280;40891;47.242;8.648;2023-05-23T03:33:30;96200.31;;;17.44;100.00
54994;BME280;40891;47.242;8.648;2023-05-23T03:35:56;96192.97;;;17.52;100.00
54994;BME280;40891;47.242;8.648;2023-05-23T03:38:21;96207.81;;;17.58;100.00
54994;BME280;40891;47.242;8.648;2023-05-23T03:40:47;96206.03;;;17.61;100.00
54994;BME280;40891;47.242;8.648;2023-05-23T03:43:13;96197.66;;;17.66;100.00
54994;BME280;40891;47.242;8.648;2023-05-23T03:45:39;96198.69;;;17.75;100.00
54994;BME280;40891;47.242;8.648;2023-05-23T03:48:04;96200.75;;;17.80;100.00
54994;BME280;40891;47.242;8.648;2023-05-23T03:50:30;96200.53;;;17.83;100.00
54994;BME280;40891;47.242;8.648;2023-05-23T03:52:55;96197.94;;;17.80;100.00
54994;BME280;40891;47.242;8.648;2023-05-23T03:55:21;96197.72;;;17.83;100.00
54994;BME280;40891;47.242;8.648;2023-05-23T03:57:48;96200.03;;;17.90;100.00
54994;BME280;40891;47.242;8.648;2023-05-23T04:00:15;96200.03;;;17.90;100.00
54994;BME280;40891;47.242;8.648;2023-05-23T04:02:40;96208.00;;;17.97;100.00
54994;BME280;40891;47.242;8.648;2023-05-23T04:05:06;96209.03;;;18.00;100.00
54994;BME280;40891;47.242;8.648;2023-05-23T04:07:32;96211.88;;;18.05;100.00
54994;BME280;40891;47.242;8.648;2023-05-23T04:10:01;96216.25;;;18.12;100.00
54994;BME280;40891;47.242;8.648;2023-05-23T04:12:27;96215.47;;;18.11;100.00
54994;BME280;40891;47.242;8.648;2023-05-23T04:14:54;96213.41;;;18.06;100.00
54994;BME280;40891;47.242;8.648;2023-05-23T04:17:20;96224.69;;;18.12;100.00
54994;BME280;40891;47.242;8.648;2023-05-23T04:19:46;96219.06;;;18.12;100.00
54994;BME280;40891;47.242;8.648;2023-05-23T04:22:12;96226.75;;;18.17;100.00
54994;BME280;40891;47.242;8.648;2023-05-23T04:24:37;96222.41;;;18.27;100.00
54994;BME280;40891;47.242;8.648;2023-05-23T04:27:03;96217.84;;;18.35;100.00
54994;BME280;40891;47.242;8.648;2023-05-23T04:29:28;96220.94;;;18.43;100.00
54994;BME280;40891;47.242;8.648;2023-05-23T04:31:56;96214.25;;;18.40;100.00
54994;BME280;40891;47.242;8.648;2023-05-23T04:34:22;96220.41;;;18.44;99.88
54994;BME280;40891;47.242;8.648;2023-05-23T04:36:47;96225.31;;;18.49;99.29
54994;BME280;40891;47.242;8.648;2023-05-23T04:39:13;96222.75;;;18.51;99.08
54994;BME280;40891;47.242;8.648;2023-05-23T04:41:40;96224.81;;;18.56;97.22
54994;BME280;40891;47.242;8.648;2023-05-23T04:44:06;96230.44;;;18.56;98.17
54994;BME280;40891;47.242;8.648;2023-05-23T04:46:34;96225.34;;;18.55;97.56
54994;BME280;40891;47.242;8.648;2023-05-23T04:49:00;96233.03;;;18.60;97.22
54994;BME280;40891;47.242;8.648;2023-05-23T04:51:26;96226.59;;;18.65;97.46
54994;BME280;40891;47.242;8.648;2023-05-23T04:53:51;96224.31;;;18.69;98.46
54994;BME280;40891;47.242;8.648;2023-05-23T04:56:16;96225.84;;;18.70;96.91
54994;BME280;40891;47.242;8.648;2023-05-23T04:58:42;96222.00;;;18.67;95.94
54994;BME280;40891;47.242;8.648;2023-05-23T05:01:09;96233.53;;;18.69;96.12
54994;BME280;40891;47.242;8.648;2023-05-23T05:03:36;96235.59;;;18.74;96.81
54994;BME280;40891;47.242;8.648;2023-05-23T05:06:01;96237.91;;;18.76;98.66
54994;BME280;40891;47.242;8.648;2023-05-23T05:08:27;96241.22;;;18.74;98.44
54994;BME280;40891;47.242;8.648;2023-05-23T05:10:53;96241.47;;;18.65;98.73
54994;BME280;40891;47.242;8.648;2023-05-23T05:13:19;96247.38;;;18.62;98.92
54994;BME280;40891;47.242;8.648;2023-05-23T05:15:44;96244.53;;;18.67;98.91
54994;BME280;40891;47.242;8.648;2023-05-23T05:18:09;96243.47;;;18.48;99.06
54994;BME280;40891;47.242;8.648;2023-05-23T05:20:36;96257.28;;;18.41;98.51
54994;BME280;40891;47.242;8.648;2023-05-23T05:23:01;96252.91;;;18.40;98.72
54994;BME280;40891;47.242;8.648;2023-05-23T05:25:27;96255.25;;;18.47;98.69
54994;BME280;40891;47.242;8.648;2023-05-23T05:27:56;96239.66;;;18.51;97.38
54994;BME280;40891;47.242;8.648;2023-05-23T05:30:21;96238.91;;;18.56;97.54
54994;BME280;40891;47.242;8.648;2023-05-23T05:32:47;96244.81;;;18.64;96.90
54994;BME280;40891;47.242;8.648;2023-05-23T05:35:12;96245.34;;;18.73;97.13
54994;BME280;40891;47.242;8.648;2023-05-23T05:37:41;96248.91;;;18.68;96.48
54994;BME280;40891;47.242;8.648;2023-05-23T05:40:06;96250.16;;;18.67;98.47
54994;BME280;40891;47.242;8.648;2023-05-23T05:42:33;96250.44;;;18.64;100.00
54994;BME280;40891;47.242;8.648;2023-05-23T05:44:58;96251.44;;;18.55;100.00
54994;BME280;40891;47.242;8.648;2023-05-23T05:47:23;96249.91;;;18.54;100.00
54994;BME280;40891;47.242;8.648;2023-05-23T05:49:48;96245.03;;;18.60;100.00
54994;BME280;40891;47.242;8.648;2023-05-23T05:52:14;96248.41;;;18.64;100.00
54994;BME280;40891;47.242;8.648;2023-05-23T05:54:39;96244.81;;;18.64;100.00
54994;BME280;40891;47.242;8.648;2023-05-23T05:57:05;96239.94;;;18.70;100.00
54994;BME280;40891;47.242;8.648;2023-05-23T05:59:30;96243.28;;;18.68;100.00
54994;BME280;40891;47.242;8.648;2023-05-23T06:01:55;96243.78;;;18.72;100.00
54994;BME280;40891;47.242;8.648;2023-05-23T06:04:21;96247.91;;;18.71;99.72
54994;BME280;40891;47.242;8.648;2023-05-23T06:06:46;96249.13;;;18.65;99.54
54994;BME280;40891;47.242;8.648;2023-05-23T06:09:11;96246.34;;;18.70;99.47
54994;BME280;40891;47.242;8.648;2023-05-23T06:11:37;96254.81;;;18.76;99.43
54994;BME280;40891;47.242;8.648;2023-05-23T06:14:08;96252.78;;;18.87;99.74
54994;BME280;40891;47.242;8.648;2023-05-23T06:16:33;96255.06;;;18.89;100.00
54994;BME280;40891;47.242;8.648;2023-05-23T06:18:59;96250.97;;;18.95;99.75
54994;BME280;40891;47.242;8.648;2023-05-23T06:21:24;96250.22;;;19.12;99.44
54994;BME280;40891;47.242;8.648;2023-05-23T06:23:49;96256.88;;;19.20;99.02
54994;BME280;40891;47.242;8.648;2023-05-23T06:26:15;96254.03;;;19.31;98.58
54994;BME280;40891;47.242;8.648;2023-05-23T06:28:40;96257.38;;;19.35;98.58
54994;BME280;40891;47.242;8.648;2023-05-23T06:31:06;96257.16;;;19.49;98.60
54994;BME280;40891;47.242;8.648;2023-05-23T06:33:34;96263.28;;;19.48;97.51
54994;BME280;40891;47.242;8.648;2023-05-23T06:35:59;96258.66;;;19.56;97.33
54994;BME280;40891;47.242;8.648;2023-05-23T06:38:26;96263.56;;;19.44;97.58
54994;BME280;40891;47.242;8.648;2023-05-23T06:40:52;96267.38;;;19.52;97.28
54994;BME280;40891;47.242;8.648;2023-05-23T06:43:17;96261.75;;;19.41;96.82
54994;BME280;40891;47.242;8.648;2023-05-23T06:45:44;96263.03;;;19.35;96.62
54994;BME280;40891;47.242;8.648;2023-05-23T06:48:10;96268.94;;;19.42;95.83
54994;BME280;40891;47.242;8.648;2023-05-23T06:50:36;96263.53;;;19.55;95.17
54994;BME280;40891;47.242;8.648;2023-05-23T06:53:01;96256.59;;;19.67;93.24
54994;BME280;40891;47.242;8.648;2023-05-23T06:55:27;96259.38;;;19.79;90.81
54994;BME280;40891;47.242;8.648;2023-05-23T06:57:52;96262.97;;;19.79;89.08
54994;BME280;40891;47.242;8.648;2023-05-23T07:00:18;96270.16;;;19.75;87.14
54994;BME280;40891;47.242;8.648;2023-05-23T07:02:43;96271.69;;;19.81;87.74
54994;BME280;40891;47.242;8.648;2023-05-23T07:05:13;96260.38;;;19.87;88.51
54994;BME280;40891;47.242;8.648;2023-05-23T07:10:04;96267.06;;;19.89;88.02
54994;BME280;40891;47.242;8.648;2023-05-23T07:12:30;96277.06;;;19.79;86.75
54994;BME280;40891;47.242;8.648;2023-05-23T07:14:56;96269.09;;;19.94;87.46
54994;BME280;40891;47.242;8.648;2023-05-23T07:17:21;96272.72;;;19.78;87.84
54994;BME280;40891;47.242;8.648;2023-05-23T07:19:46;96274.03;;;19.66;88.46
54994;BME280;40891;47.242;8.648;2023-05-23T07:22:12;96277.59;;;19.66;88.85
54994;BME280;40891;47.242;8.648;2023-05-23T07:24:37;96290.19;;;19.54;90.07
54994;BME280;40891;47.242;8.648;2023-05-23T07:27:02;96288.66;;;19.48;90.94
54994;BME280;40891;47.242;8.648;2023-05-23T07:29:28;96295.84;;;19.49;91.11
54994;BME280;40891;47.242;8.648;2023-05-23T07:31:53;96304.53;;;19.62;91.70
54994;BME280;40891;47.242;8.648;2023-05-23T07:34:18;96298.41;;;19.58;91.03
54994;BME280;40891;47.242;8.648;2023-05-23T07:36:44;96299.69;;;19.57;92.03
54994;BME280;40891;47.242;8.648;2023-05-23T07:39:09;96303.03;;;19.61;91.47
54994;BME280;40891;47.242;8.648;2023-05-23T07:41:35;96303.28;;;19.57;90.10
54994;BME280;40891;47.242;8.648;2023-05-23T07:44:00;96306.63;;;19.56;90.71
54994;BME280;40891;47.242;8.648;2023-05-23T07:46:25;96304.56;;;19.51;89.47
54994;BME280;40891;47.242;8.648;2023-05-23T07:48:51;96300.47;;;19.52;89.36
54994;BME280;40891;47.242;8.648;2023-05-23T07:51:16;96307.91;;;19.49;89.67
54994;BME280;40891;47.242;8.648;2023-05-23T07:53:45;96308.16;;;19.46;88.15
54994;BME280;40891;47.242;8.648;2023-05-23T07:56:10;96310.47;;;19.36;88.60
54994;BME280;40891;47.242;8.648;2023-05-23T07:58:36;96303.28;;;19.52;88.87
54994;BME280;40891;47.242;8.648;2023-05-23T08:01:01;96303.78;;;19.73;90.25
54994;BME280;40891;47.242;8.648;2023-05-23T08:03:27;96306.09;;;19.63;87.48
54994;BME280;40891;47.242;8.648;2023-05-23T08:05:53;96310.97;;;19.68;88.87
54994;BME280;40891;47.242;8.648;2023-05-23T08:08:18;96301.19;;;19.80;89.42
54994;BME280;40891;47.242;8.648;2023-05-23T08:10:43;96298.34;;;19.97;88.53
54994;BME280;40891;47.242;8.648;2023-05-23T08:13:09;96299.84;;;20.03;86.87
54994;BME280;40891;47.242;8.648;2023-05-23T08:15:35;96294.91;;;20.26;86.29
54994;BME280;40891;47.242;8.648;2023-05-23T08:18:00;96299.94;;;20.50;87.55
54994;BME280;40891;47.242;8.648;2023-05-23T08:20:26;96301.34;;;20.78;84.48
54994;BME280;40891;47.242;8.648;2023-05-23T08:22:59;96296.06;;;20.99;80.68
54994;BME280;40891;47.242;8.648;2023-05-23T08:25:25;96306.56;;;21.10;78.98
54994;BME280;40891;47.242;8.648;2023-05-23T08:27:55;96296.19;;;21.23;77.45
54994;BME280;40891;47.242;8.648;2023-05-23T08:30:21;96299.13;;;21.42;76.89
54994;BME280;40891;47.242;8.648;2023-05-23T08:32:47;96299.53;;;21.81;77.27
54994;BME280;40891;47.242;8.648;2023-05-23T08:35:12;96302.88;;;21.80;74.43
54994;BME280;40891;47.242;8.648;2023-05-23T08:37:38;96305.06;;;21.98;74.48
54994;BME280;40891;47.242;8.648;2023-05-23T08:40:06;96315.56;;;22.03;76.63
54994;BME280;40891;47.242;8.648;2023-05-23T08:42:33;96312.47;;;22.01;78.82
54994;BME280;40891;47.242;8.648;2023-05-23T08:44:58;96315.06;;;21.99;80.13
54994;BME280;40891;47.242;8.648;2023-05-23T08:47:24;96310.31;;;21.88;80.76
54994;BME280;40891;47.242;8.648;2023-05-23T08:49:54;96313.28;;;21.72;81.41
54994;BME280;40891;47.242;8.648;2023-05-23T08:52:20;96320.00;;;21.39;85.28
54994;BME280;40891;47.242;8.648;2023-05-23T08:54:48;96318.91;;;21.12;87.42
54994;BME280;40891;47.242;8.648;2023-05-23T08:57:14;96324.06;;;21.08;89.24
54994;BME280;40891;47.242;8.648;2023-05-23T08:59:41;96315.50;;;21.19;88.56
54994;BME280;40891;47.242;8.648;2023-05-23T09:02:09;96326.69;;;21.65;87.10
54994;BME280;40891;47.242;8.648;2023-05-23T09:04:36;96317.69;;;21.67;84.47
54994;BME280;40891;47.242;8.648;2023-05-23T09:07:01;96319.94;;;21.74;83.56
54994;BME280;40891;47.242;8.648;2023-05-23T09:09:28;96325.72;;;21.93;82.29
54994;BME280;40891;47.242;8.648;2023-05-23T09:11:54;96332.41;;;21.90;81.82
54994;BME280;40891;47.242;8.648;2023-05-23T09:14:20;96319.38;;;22.05;80.92
54994;BME280;40891;47.242;8.648;2023-05-23T09:16:46;96333.31;;;21.74;81.05
54994;BME280;40891;47.242;8.648;2023-05-23T09:19:13;96329.28;;;21.63;82.22
54994;BME280;40891;47.242;8.648;2023-05-23T09:21:45;96322.03;;;21.68;82.78
54994;BME280;40891;47.242;8.648;2023-05-23T09:24:11;96327.47;;;21.66;81.85
54994;BME280;40891;47.242;8.648;2023-05-23T09:26:36;96326.84;;;21.49;83.31
54994;BME280;40891;47.242;8.648;2023-05-23T09:29:04;96322.34;;;21.94;81.33
54994;BME280;40891;47.242;8.648;2023-05-23T09:31:31;96327.22;;;21.94;80.58
54994;BME280;40891;47.242;8.648;2023-05-23T09:33:57;96331.47;;;22.06;80.23
54994;BME280;40891;47.242;8.648;2023-05-23T09:36:26;96326.91;;;22.03;80.64
54994;BME280;40891;47.242;8.648;2023-05-23T09:39:01;96318.91;;;22.01;80.20
54994;BME280;40891;47.242;8.648;2023-05-23T09:41:29;96323.06;;;22.00;80.28
54994;BME280;40891;47.242;8.648;2023-05-23T09:43:55;96319.31;;;21.87;82.28
54994;BME280;40891;47.242;8.648;2023-05-23T09:46:21;96318.06;;;21.52;82.95
54994;BME280;40891;47.242;8.648;2023-05-23T09:48:50;96314.91;;;21.61;82.58
54994;BME280;40891;47.242;8.648;2023-05-23T09:51:21;96320.75;;;21.99;80.94
54994;BME280;40891;47.242;8.648;2023-05-23T09:53:48;96319.47;;;22.00;81.94
54994;BME280;40891;47.242;8.648;2023-05-23T09:56:15;96309.88;;;22.27;80.86
54994;BME280;40891;47.242;8.648;2023-05-23T09:58:47;96318.78;;;22.79;77.93
54994;BME280;40891;47.242;8.648;2023-05-23T10:01:12;96313.81;;;22.85;76.19
54994;BME280;40891;47.242;8.648;2023-05-23T10:03:49;96310.66;;;22.89;75.55
54994;BME280;40891;47.242;8.648;2023-05-23T10:06:25;96316.88;;;22.87;76.35
54994;BME280;40891;47.242;8.648;2023-05-23T10:08:56;96306.38;;;22.82;75.11
54994;BME280;40891;47.242;8.648;2023-05-23T10:14:17;96315.38;;;22.62;74.64
54994;BME280;40891;47.242;8.648;2023-05-23T10:16:52;96312.03;;;22.64;76.37
54994;BME280;40891;47.242;8.648;2023-05-23T10:22:16;96307.06;;;23.57;70.74
54994;BME280;40891;47.242;8.648;2023-05-23T10:24:44;96302.69;;;24.14;71.62
54994;BME280;40891;47.242;8.648;2023-05-23T10:27:10;96292.22;;;24.49;66.69
54994;BME280;40891;47.242;8.648;2023-05-23T10:29:36;96281.03;;;25.11;66.69
54994;BME280;40891;47.242;8.648;2023-05-23T10:32:02;96280.78;;;25.55;63.93
54994;BME280;40891;47.242;8.648;2023-05-23T10:34:36;96280.16;;;25.98;60.30
54994;BME280;40891;47.242;8.648;2023-05-23T10:37:05;96278.56;;;26.10;59.68
54994;BME280;40891;47.242;8.648;2023-05-23T10:39:57;96276.59;;;26.26;58.30
54994;BME280;40891;47.242;8.648;2023-05-23T10:42:55;96270.38;;;26.71;57.82
54994;BME280;40891;47.242;8.648;2023-05-23T10:45:23;96281.50;;;26.89;56.61
54994;BME280;40891;47.242;8.648;2023-05-23T10:47:51;96272.88;;;27.33;54.60
54994;BME280;40891;47.242;8.648;2023-05-23T10:52:59;96271.78;;;27.43;54.47
54994;BME280;40891;47.242;8.648;2023-05-23T10:55:25;96271.00;;;27.50;53.09
54994;BME280;40891;47.242;8.648;2023-05-23T10:58:15;96270.47;;;27.82;52.87
54994;BME280;40891;47.242;8.648;2023-05-23T11:01:00;96269.88;;;27.76;52.95
54994;BME280;40891;47.242;8.648;2023-05-23T11:05:59;96266.00;;;28.57;50.47
54994;BME280;40891;47.242;8.648;2023-05-23T11:08:25;96261.84;;;29.05;49.39
54994;BME280;40891;47.242;8.648;2023-05-23T11:11:01;96249.09;;;29.31;48.72
54994;BME280;40891;47.242;8.648;2023-05-23T11:13:53;96250.09;;;29.26;49.11
54994;BME280;40891;47.242;8.648;2023-05-23T11:16:27;96240.22;;;29.76;50.30
54994;BME280;40891;47.242;8.648;2023-05-23T11:21:45;96233.63;;;29.58;48.47
54994;BME280;40891;47.242;8.648;2023-05-23T11:24:10;96239.22;;;29.49;49.13
54994;BME280;40891;47.242;8.648;2023-05-23T11:26:36;96233.63;;;29.58;49.00
54994;BME280;40891;47.242;8.648;2023-05-23T11:29:01;96233.25;;;30.04;47.19
54994;BME280;40891;47.242;8.648;2023-05-23T11:31:29;96237.16;;;30.16;47.10
54994;BME280;40891;47.242;8.648;2023-05-23T11:33:55;96230.81;;;30.42;45.37
54994;BME280;40891;47.242;8.648;2023-05-23T11:36:21;96222.13;;;31.11;44.28
54994;BME280;40891;47.242;8.648;2023-05-23T11:38:48;96232.31;;;30.43;43.91
54994;BME280;40891;47.242;8.648;2023-05-23T11:41:16;96223.13;;;30.62;44.01
54994;BME280;40891;47.242;8.648;2023-05-23T11:43:49;96222.34;;;30.44;44.97
54994;BME280;40891;47.242;8.648;2023-05-23T11:46:15;96217.59;;;30.90;43.78
54994;BME280;40891;47.242;8.648;2023-05-23T11:48:45;96216.59;;;30.78;42.93
54994;BME280;40891;47.242;8.648;2023-05-23T11:51:10;96209.31;;;30.77;44.00
54994;BME280;40891;47.242;8.648;2023-05-23T11:53:36;96205.63;;;30.67;43.29
54994;BME280;40891;47.242;8.648;2023-05-23T11:56:01;96203.06;;;30.88;43.48
54994;BME280;40891;47.242;8.648;2023-05-23T11:58:38;96195.47;;;31.54;41.80
54994;BME280;40891;47.242;8.648;2023-05-23T12:01:07;96198.66;;;32.13;39.30
54994;BME280;40891;47.242;8.648;2023-05-23T12:03:34;96192.78;;;32.31;38.92
54994;BME280;40891;47.242;8.648;2023-05-23T12:06:08;96196.31;;;32.77;37.79
54994;BME280;40891;47.242;8.648;2023-05-23T12:08:33;96190.00;;;33.28;38.89
54994;BME280;40891;47.242;8.648;2023-05-23T12:11:00;96183.06;;;33.93;35.24
54994;BME280;40891;47.242;8.648;2023-05-23T12:13:27;96180.34;;;33.64;35.49
54994;BME280;40891;47.242;8.648;2023-05-23T12:16:00;96180.16;;;34.66;33.92
54994;BME280;40891;47.242;8.648;2023-05-23T12:18:30;96177.84;;;35.18;35.94
54994;BME280;40891;47.242;8.648;2023-05-23T12:21:00;96180.56;;;35.95;31.23
54994;BME280;40891;47.242;8.648;2023-05-23T12:23:27;96176.34;;;36.56;29.97
54994;BME280;40891;47.242;8.648;2023-05-23T12:25:53;96177.69;;;36.67;29.17
54994;BME280;40891;47.242;8.648;2023-05-23T12:28:20;96166.34;;;37.60;28.74
54994;BME280;40891;47.242;8.648;2023-05-23T12:30:46;96168.16;;;37.40;27.88
54994;BME280;40891;47.242;8.648;2023-05-23T12:33:11;96166.88;;;37.18;29.97
54994;BME280;40891;47.242;8.648;2023-05-23T12:35:41;96157.69;;;38.14;28.13
54994;BME280;40891;47.242;8.648;2023-05-23T12:38:07;96150.28;;;38.11;28.89
54994;BME280;40891;47.242;8.648;2023-05-23T12:40:32;96155.34;;;37.06;30.68
54994;BME280;40891;47.242;8.648;2023-05-23T12:42:58;96156.63;;;36.66;30.14
54994;BME280;40891;47.242;8.648;2023-05-23T12:45:31;96156.16;;;36.95;31.47
54994;BME280;40891;47.242;8.648;2023-05-23T12:47:56;96152.69;;;37.63;29.89
54994;BME280;40891;47.242;8.648;2023-05-23T12:50:22;96159.09;;;36.47;31.47
54994;BME280;40891;47.242;8.648;2023-05-23T12:52:47;96149.63;;;35.63;32.68
54994;BME280;40891;47.242;8.648;2023-05-23T12:55:13;96148.78;;;36.44;31.26
54994;BME280;40891;47.242;8.648;2023-05-23T12:57:38;96154.41;;;35.70;31.19
54994;BME280;40891;47.242;8.648;2023-05-23T13:00:04;96165.94;;;34.16;33.10
54994;BME280;40891;47.242;8.648;2023-05-23T13:02:30;96173.97;;;33.06;36.34
54994;BME280;40891;47.242;8.648;2023-05-23T13:04:56;96172.00;;;32.99;35.70
54994;BME280;40891;47.242;8.648;2023-05-23T13:07:21;96176.88;;;32.49;36.44
54994;BME280;40891;47.242;8.648;2023-05-23T13:09:47;96180.16;;;31.97;38.54
54994;BME280;40891;47.242;8.648;2023-05-23T13:12:13;96190.56;;;31.20;40.04
54994;BME280;40891;47.242;8.648;2023-05-23T13:14:40;96204.84;;;31.28;38.99
54994;BME280;40891;47.242;8.648;2023-05-23T13:17:05;96217.25;;;30.86;42.72
54994;BME280;40891;47.242;8.648;2023-05-23T13:19:30;96229.19;;;29.90;42.02
54994;BME280;40891;47.242;8.648;2023-05-23T13:21:56;96236.84;;;28.98;43.50